sensor_id;sensor_type;location;lat;lon;timestamp;temperature;humidity
33815;DHT22;20121;51.910;8.406;2023-07-28T00:02:09;17.40;99.90
33815;DHT22;20121;51.910;8.406;2023-07-28T00:04:35;17.40;99.90
33815;DHT22;20121;51.910;8.406;2023-07-28T00:07:02;17.40;99.90
33815;DHT22;20121;51.910;8.406;2023-07-28T00:09:28;17.40;99.90
33815;DHT22;20121;51.910;8.406;2023-07-28T00:11:53;17.40;99.90
33815;DHT22;20121;51.910;8.406;2023-07-28T00:14:19;17.40;99.90
33815;DHT22;20121;51.910;8.406;2023-07-28T00:16:45;17.40;99.90
33815;DHT22;20121;51.910;8.406;2023-07-28T00:19:10;17.40;99.90
33815;DHT22;20121;51.910;8.406;2023-07-28T00:21:37;17.40;99.90
33815;DHT22;20121;51.910;8.406;2023-07-28T00:24:03;17.40;99.90
33815;DHT22;20121;51.910;8.406;2023-07-28T00:26:28;17.30;99.90
33815;DHT22;20121;51.910;8.406;2023-07-28T00:28:54;17.30;99.90
33815;DHT22;20121;51.910;8.406;2023-07-28T00:31:20;17.30;99.90
33815;DHT22;20121;51.910;8.406;2023-07-28T00:33:45;17.40;99.90
33815;DHT22;20121;51.910;8.406;2023-07-28T00:36:11;17.30;99.90
33815;DHT22;20121;51.910;8.406;2023-07-28T00:38:36;17.30;99.90
33815;DHT22;20121;51.910;8.406;2023-07-28T00:41:02;17.00;99.90
33815;DHT22;20121;51.910;8.406;2023-07-28T00:43:27;17.30;99.90
33815;DHT22;20121;51.910;8.406;2023-07-28T00:45:53;17.30;99.90
33815;DHT22;20121;51.910;8.406;2023-07-28T00:48:19;17.30;99.90
33815;DHT22;20121;51.910;8.406;2023-07-28T00:50:47;17.30;99.90
33815;DHT22;20121;51.910;8.406;2023-07-28T00:53:14;17.30;99.90
33815;DHT22;20121;51.910;8.406;2023-07-28T00:58:13;17.30;99.90
33815;DHT22;20121;51.910;8.406;2023-07-28T01:00:39;17.30;99.90
33815;DHT22;20121;51.910;8.406;2023-07-28T01:03:04;17.30;99.90
33815;DHT22;20121;51.910;8.406;2023-07-28T01:11:07;17.20;99.90
33815;DHT22;20121;51.910;8.406;2023-07-28T01:13:33;17.20;99.90
33815;DHT22;20121;51.910;8.406;2023-07-28T01:16:00;17.10;99.90
33815;DHT22;20121;51.910;8.406;2023-07-28T01:18:27;17.30;99.90
33815;DHT22;20121;51.910;8.406;2023-07-28T01:20:55;17.30;99.90
33815;DHT22;20121;51.910;8.406;2023-07-28T01:26:06;17.30;99.90
33815;DHT22;20121;51.910;8.406;2023-07-28T01:28:34;17.30;99.90
33815;DHT22;20121;51.910;8.406;2023-07-28T01:31:02;17.30;99.90
33815;DHT22;20121;51.910;8.406;2023-07-28T01:33:29;17.30;99.90
33815;DHT22;20121;51.910;8.406;2023-07-28T01:35:54;17.60;99.90
33815;DHT22;20121;51.910;8.406;2023-07-28T01:38:20;17.20;99.90
33815;DHT22;20121;51.910;8.406;2023-07-28T01:40:46;17.30;99.90
33815;DHT22;20121;51.910;8.406;2023-07-28T01:43:12;17.30;99.90
33815;DHT22;20121;51.910;8.406;2023-07-28T01:45:38;17.30;99.90
33815;DHT22;20121;51.910;8.406;2023-07-28T01:48:04;17.20;99.90
33815;DHT22;20121;51.910;8.406;2023-07-28T01:50:30;17.20;99.90
33815;DHT22;20121;51.910;8.406;2023-07-28T01:52:55;17.20;99.90
33815;DHT22;20121;51.910;8.406;2023-07-28T01:55:21;17.20;99.90
33815;DHT22;20121;51.910;8.406;2023-07-28T01:57:54;17.20;99.90
33815;DHT22;20121;51.910;8.406;2023-07-28T02:00:19;17.20;99.90
33815;DHT22;20121;51.910;8.406;2023-07-28T02:02:46;17.20;99.90
33815;DHT22;20121;51.910;8.406;2023-07-28T02:05:12;17.20;99.90
33815;DHT22;20121;51.910;8.406;2023-07-28T02:07:38;17.20;99.90
33815;DHT22;20121;51.910;8.406;2023-07-28T02:10:04;17.20;99.90
33815;DHT22;20121;51.910;8.406;2023-07-28T02:12:29;17.20;99.90
33815;DHT22;20121;51.910;8.406;2023-07-28T02:14:55;17.20;99.90
33815;DHT22;20121;51.910;8.406;2023-07-28T02:17:21;17.20;99.90
33815;DHT22;20121;51.910;8.406;2023-07-28T02:19:46;17.20;99.90
33815;DHT22;20121;51.910;8.406;2023-07-28T02:22:12;17.20;99.90
33815;DHT22;20121;51.910;8.406;2023-07-28T02:24:38;17.20;99.90
33815;DHT22;20121;51.910;8.406;2023-07-28T02:27:04;17.20;99.90
33815;DHT22;20121;51.910;8.406;2023-07-28T02:29:30;17.20;99.90
33815;DHT22;20121;51.910;8.406;2023-07-28T02:31:55;17.20;99.90
33815;DHT22;20121;51.910;8.406;2023-07-28T02:34:21;17.20;99.90
33815;DHT22;20121;51.910;8.406;2023-07-28T02:36:47;17.20;99.90
33815;DHT22;20121;51.910;8.406;2023-07-28T02:39:13;17.20;99.90
33815;DHT22;20121;51.910;8.406;2023-07-28T02:41:38;17.20;99.90
33815;DHT22;20121;51.910;8.406;2023-07-28T02:44:04;17.20;99.90
33815;DHT22;20121;51.910;8.406;2023-07-28T02:46:30;17.20;99.90
33815;DHT22;20121;51.910;8.406;2023-07-28T02:48:55;17.20;99.90
33815;DHT22;20121;51.910;8.406;2023-07-28T02:51:21;17.20;99.90
33815;DHT22;20121;51.910;8.406;2023-07-28T02:53:47;17.20;99.90
33815;DHT22;20121;51.910;8.406;2023-07-28T02:56:12;17.20;99.90
33815;DHT22;20121;51.910;8.406;2023-07-28T02:58:38;17.20;99.90
33815;DHT22;20121;51.910;8.406;2023-07-28T03:01:03;17.20;99.90
33815;DHT22;20121;51.910;8.406;2023-07-28T03:03:30;17.20;99.90
33815;DHT22;20121;51.910;8.406;2023-07-28T03:05:56;17.10;99.90
33815;DHT22;20121;51.910;8.406;2023-07-28T03:08:22;17.20;99.90
33815;DHT22;20121;51.910;8.406;2023-07-28T03:10:47;17.10;99.90
33815;DHT22;20121;51.910;8.406;2023-07-28T03:13:13;17.20;99.90
33815;DHT22;20121;51.910;8.406;2023-07-28T03:15:38;17.10;99.90
33815;DHT22;20121;51.910;8.406;2023-07-28T03:18:04;17.10;99.90
33815;DHT22;20121;51.910;8.406;2023-07-28T03:20:30;17.20;99.90
33815;DHT22;20121;51.910;8.406;2023-07-28T03:22:55;17.20;99.90
33815;DHT22;20121;51.910;8.406;2023-07-28T03:25:21;17.20;99.90
33815;DHT22;20121;51.910;8.406;2023-07-28T03:27:47;17.20;99.90
33815;DHT22;20121;51.910;8.406;2023-07-28T03:30:13;17.20;99.90
33815;DHT22;20121;51.910;8.406;2023-07-28T03:32:38;17.20;99.90
33815;DHT22;20121;51.910;8.406;2023-07-28T03:35:05;17.20;99.90
33815;DHT22;20121;51.910;8.406;2023-07-28T03:37:33;17.20;99.90
33815;DHT22;20121;51.910;8.406;2023-07-28T03:39:58;17.20;99.90
33815;DHT22;20121;51.910;8.406;2023-07-28T03:42:24;17.20;99.90
33815;DHT22;20121;51.910;8.406;2023-07-28T03:44:50;17.20;99.90
33815;DHT22;20121;51.910;8.406;2023-07-28T03:47:16;17.20;99.90
33815;DHT22;20121;51.910;8.406;2023-07-28T03:49:42;17.20;99.90
33815;DHT22;20121;51.910;8.406;2023-07-28T03:52:07;17.20;99.90
33815;DHT22;20121;51.910;8.406;2023-07-28T03:54:33;17.20;99.90
33815;DHT22;20121;51.910;8.406;2023-07-28T03:56:58;17.20;99.90
33815;DHT22;20121;51.910;8.406;2023-07-28T03:59:24;17.20;99.90
33815;DHT22;20121;51.910;8.406;2023-07-28T04:01:49;17.20;99.90
33815;DHT22;20121;51.910;8.406;2023-07-28T04:04:15;17.20;99.90
33815;DHT22;20121;51.910;8.406;2023-07-28T04:06:42;17.20;99.90
33815;DHT22;20121;51.910;8.406;2023-07-28T04:09:08;17.20;99.90
33815;DHT22;20121;51.910;8.406;2023-07-28T04:11:34;17.20;99.90
33815;DHT22;20121;51.910;8.406;2023-07-28T04:13:59;17.20;99.90
33815;DHT22;20121;51.910;8.406;2023-07-28T04:16:25;17.20;99.90
33815;DHT22;20121;51.910;8.406;2023-07-28T04:18:51;17.20;99.90
33815;DHT22;20121;51.910;8.406;2023-07-28T04:21:16;17.20;99.90
33815;DHT22;20121;51.910;8.406;2023-07-28T04:23:42;17.20;99.90
33815;DHT22;20121;51.910;8.406;2023-07-28T04:26:08;17.20;99.90
33815;DHT22;20121;51.910;8.406;2023-07-28T04:28:34;17.20;99.90
33815;DHT22;20121;51.910;8.406;2023-07-28T04:31:00;17.20;99.90
33815;DHT22;20121;51.910;8.406;2023-07-28T04:33:25;17.20;99.90
33815;DHT22;20121;51.910;8.406;2023-07-28T04:35:51;17.10;99.90
33815;DHT22;20121;51.910;8.406;2023-07-28T04:38:16;17.20;99.90
33815;DHT22;20121;51.910;8.406;2023-07-28T04:40:44;17.20;99.90
33815;DHT22;20121;51.910;8.406;2023-07-28T04:43:10;17.20;99.90
33815;DHT22;20121;51.910;8.406;2023-07-28T04:45:35;17.20;99.90
33815;DHT22;20121;51.910;8.406;2023-07-28T04:48:01;17.20;99.90
33815;DHT22;20121;51.910;8.406;2023-07-28T04:50:27;17.30;99.90
33815;DHT22;20121;51.910;8.406;2023-07-28T04:52:53;17.20;99.90
33815;DHT22;20121;51.910;8.406;2023-07-28T04:55:18;17.30;99.90
33815;DHT22;20121;51.910;8.406;2023-07-28T04:57:44;17.30;99.90
33815;DHT22;20121;51.910;8.406;2023-07-28T05:00:10;17.30;99.90
33815;DHT22;20121;51.910;8.406;2023-07-28T05:02:36;17.30;99.90
33815;DHT22;20121;51.910;8.406;2023-07-28T05:05:01;17.40;99.90
33815;DHT22;20121;51.910;8.406;2023-07-28T05:07:27;17.40;99.90
33815;DHT22;20121;51.910;8.406;2023-07-28T05:09:54;17.40;99.90
33815;DHT22;20121;51.910;8.406;2023-07-28T05:12:20;17.40;99.90
33815;DHT22;20121;51.910;8.406;2023-07-28T05:14:46;17.40;99.90
33815;DHT22;20121;51.910;8.406;2023-07-28T05:17:11;17.40;99.90
33815;DHT22;20121;51.910;8.406;2023-07-28T05:19:37;17.50;99.90
33815;DHT22;20121;51.910;8.406;2023-07-28T05:22:03;17.50;99.90
33815;DHT22;20121;51.910;8.406;2023-07-28T05:24:28;17.50;99.90
33815;DHT22;20121;51.910;8.406;2023-07-28T05:26:54;17.50;99.90
33815;DHT22;20121;51.910;8.406;2023-07-28T05:29:20;17.10;99.90
33815;DHT22;20121;51.910;8.406;2023-07-28T05:31:45;17.50;99.90
33815;DHT22;20121;51.910;8.406;2023-07-28T05:34:11;17.50;99.90
33815;DHT22;20121;51.910;8.406;2023-07-28T05:36:38;17.50;99.90
33815;DHT22;20121;51.910;8.406;2023-07-28T05:39:04;17.50;99.90
33815;DHT22;20121;51.910;8.406;2023-07-28T05:41:30;17.50;99.90
33815;DHT22;20121;51.910;8.406;2023-07-28T05:43:55;17.50;99.90
33815;DHT22;20121;51.910;8.406;2023-07-28T05:46:21;17.50;99.90
33815;DHT22;20121;51.910;8.406;2023-07-28T05:48:47;17.60;99.90
33815;DHT22;20121;51.910;8.406;2023-07-28T05:51:12;17.60;99.90
33815;DHT22;20121;51.910;8.406;2023-07-28T05:53:38;17.60;99.90
33815;DHT22;20121;51.910;8.406;2023-07-28T05:56:04;17.60;99.90
33815;DHT22;20121;51.910;8.406;2023-07-28T05:58:29;17.60;99.90
33815;DHT22;20121;51.910;8.406;2023-07-28T06:00:55;17.70;99.90
33815;DHT22;20121;51.910;8.406;2023-07-28T06:03:21;17.70;99.90
33815;DHT22;20121;51.910;8.406;2023-07-28T06:05:47;17.60;99.90
33815;DHT22;20121;51.910;8.406;2023-07-28T06:08:12;17.70;99.90
33815;DHT22;20121;51.910;8.406;2023-07-28T06:10:39;17.70;99.90
33815;DHT22;20121;51.910;8.406;2023-07-28T06:13:04;17.80;99.90
33815;DHT22;20121;51.910;8.406;2023-07-28T06:15:30;17.80;99.90
33815;DHT22;20121;51.910;8.406;2023-07-28T06:17:56;17.80;99.90
33815;DHT22;20121;51.910;8.406;2023-07-28T06:20:22;17.80;99.90
33815;DHT22;20121;51.910;8.406;2023-07-28T06:22:47;18.60;99.90
33815;DHT22;20121;51.910;8.406;2023-07-28T06:25:13;17.80;99.90
33815;DHT22;20121;51.910;8.406;2023-07-28T06:27:39;17.80;99.90
33815;DHT22;20121;51.910;8.406;2023-07-28T06:30:05;17.80;99.90
33815;DHT22;20121;51.910;8.406;2023-07-28T06:32:31;17.90;99.90
33815;DHT22;20121;51.910;8.406;2023-07-28T06:34:56;17.90;99.90
33815;DHT22;20121;51.910;8.406;2023-07-28T06:37:23;17.90;99.90
33815;DHT22;20121;51.910;8.406;2023-07-28T06:39:48;18.30;99.90
33815;DHT22;20121;51.910;8.406;2023-07-28T06:42:14;17.90;99.90
33815;DHT22;20121;51.910;8.406;2023-07-28T06:44:42;18.00;99.90
33815;DHT22;20121;51.910;8.406;2023-07-28T06:47:07;18.00;99.90
33815;DHT22;20121;51.910;8.406;2023-07-28T06:49:33;18.00;99.90
33815;DHT22;20121;51.910;8.406;2023-07-28T06:51:59;18.00;99.90
33815;DHT22;20121;51.910;8.406;2023-07-28T06:54:24;18.00;99.90
33815;DHT22;20121;51.910;8.406;2023-07-28T06:56:50;18.10;99.90
33815;DHT22;20121;51.910;8.406;2023-07-28T06:59:16;18.00;99.90
33815;DHT22;20121;51.910;8.406;2023-07-28T07:01:41;18.10;99.90
33815;DHT22;20121;51.910;8.406;2023-07-28T07:04:07;18.00;99.90
33815;DHT22;20121;51.910;8.406;2023-07-28T07:06:33;18.50;99.90
33815;DHT22;20121;51.910;8.406;2023-07-28T07:08:58;18.10;99.90
33815;DHT22;20121;51.910;8.406;2023-07-28T07:11:24;18.10;99.90
33815;DHT22;20121;51.910;8.406;2023-07-28T07:13:50;18.20;99.90
33815;DHT22;20121;51.910;8.406;2023-07-28T07:16:16;18.50;99.90
33815;DHT22;20121;51.910;8.406;2023-07-28T07:18:45;18.50;99.90
33815;DHT22;20121;51.910;8.406;2023-07-28T07:21:11;18.10;99.90
33815;DHT22;20121;51.910;8.406;2023-07-28T07:23:37;18.30;99.90
33815;DHT22;20121;51.910;8.406;2023-07-28T07:26:03;18.40;99.90
33815;DHT22;20121;51.910;8.406;2023-07-28T07:30:55;17.90;99.90
33815;DHT22;20121;51.910;8.406;2023-07-28T07:35:47;18.40;99.90
33815;DHT22;20121;51.910;8.406;2023-07-28T07:38:12;18.40;99.90
33815;DHT22;20121;51.910;8.406;2023-07-28T07:40:38;18.40;99.90
33815;DHT22;20121;51.910;8.406;2023-07-28T07:43:04;18.50;99.90
33815;DHT22;20121;51.910;8.406;2023-07-28T07:45:31;18.50;99.90
33815;DHT22;20121;51.910;8.406;2023-07-28T07:47:56;18.70;99.90
33815;DHT22;20121;51.910;8.406;2023-07-28T07:50:23;18.50;99.90
33815;DHT22;20121;51.910;8.406;2023-07-28T07:52:48;18.60;99.90
33815;DHT22;20121;51.910;8.406;2023-07-28T07:55:14;18.60;99.90
33815;DHT22;20121;51.910;8.406;2023-07-28T07:57:40;18.80;99.90
33815;DHT22;20121;51.910;8.406;2023-07-28T08:00:06;18.90;99.90
33815;DHT22;20121;51.910;8.406;2023-07-28T08:02:32;19.00;99.90
33815;DHT22;20121;51.910;8.406;2023-07-28T08:04:58;19.10;99.90
33815;DHT22;20121;51.910;8.406;2023-07-28T08:07:24;19.20;99.90
33815;DHT22;20121;51.910;8.406;2023-07-28T08:09:50;19.30;99.90
33815;DHT22;20121;51.910;8.406;2023-07-28T08:12:16;19.40;99.90
33815;DHT22;20121;51.910;8.406;2023-07-28T08:14:42;19.30;99.90
33815;DHT22;20121;51.910;8.406;2023-07-28T08:17:08;19.40;99.90
33815;DHT22;20121;51.910;8.406;2023-07-28T08:19:34;19.50;99.90
33815;DHT22;20121;51.910;8.406;2023-07-28T08:22:01;19.50;99.90
33815;DHT22;20121;51.910;8.406;2023-07-28T08:24:29;19.60;99.90
33815;DHT22;20121;51.910;8.406;2023-07-28T08:26:54;19.60;99.90
33815;DHT22;20121;51.910;8.406;2023-07-28T08:29:20;19.80;99.90
33815;DHT22;20121;51.910;8.406;2023-07-28T08:31:46;19.70;99.90
33815;DHT22;20121;51.910;8.406;2023-07-28T08:34:12;19.90;99.90
33815;DHT22;20121;51.910;8.406;2023-07-28T08:36:38;20.00;99.90
33815;DHT22;20121;51.910;8.406;2023-07-28T08:39:04;20.20;99.90
33815;DHT22;20121;51.910;8.406;2023-07-28T08:41:30;20.10;99.90
33815;DHT22;20121;51.910;8.406;2023-07-28T08:43:56;20.20;99.90
33815;DHT22;20121;51.910;8.406;2023-07-28T08:46:22;20.20;99.90
33815;DHT22;20121;51.910;8.406;2023-07-28T08:48:48;20.30;99.90
33815;DHT22;20121;51.910;8.406;2023-07-28T08:51:14;20.20;99.90
33815;DHT22;20121;51.910;8.406;2023-07-28T08:53:40;20.50;99.90
33815;DHT22;20121;51.910;8.406;2023-07-28T08:56:06;20.40;99.90
33815;DHT22;20121;51.910;8.406;2023-07-28T08:58:32;20.60;99.90
33815;DHT22;20121;51.910;8.406;2023-07-28T09:00:59;20.80;99.90
33815;DHT22;20121;51.910;8.406;2023-07-28T09:03:27;20.90;99.90
33815;DHT22;20121;51.910;8.406;2023-07-28T09:06:00;21.00;99.90
33815;DHT22;20121;51.910;8.406;2023-07-28T09:08:27;20.90;99.90
33815;DHT22;20121;51.910;8.406;2023-07-28T09:10:53;21.10;99.90
33815;DHT22;20121;51.910;8.406;2023-07-28T09:13:20;20.90;99.90
33815;DHT22;20121;51.910;8.406;2023-07-28T09:15:46;20.90;99.90
33815;DHT22;20121;51.910;8.406;2023-07-28T09:18:14;20.90;99.90
33815;DHT22;20121;51.910;8.406;2023-07-28T09:20:41;21.10;99.90
33815;DHT22;20121;51.910;8.406;2023-07-28T09:23:07;21.00;99.90
33815;DHT22;20121;51.910;8.406;2023-07-28T09:25:34;21.00;99.90
33815;DHT22;20121;51.910;8.406;2023-07-28T09:28:00;21.00;99.90
33815;DHT22;20121;51.910;8.406;2023-07-28T09:30:26;21.10;99.90
33815;DHT22;20121;51.910;8.406;2023-07-28T09:32:54;21.00;99.90
33815;DHT22;20121;51.910;8.406;2023-07-28T09:35:21;21.00;99.90
33815;DHT22;20121;51.910;8.406;2023-07-28T09:37:49;20.80;99.90
33815;DHT22;20121;51.910;8.406;2023-07-28T09:40:20;20.80;99.90
33815;DHT22;20121;51.910;8.406;2023-07-28T09:42:47;20.80;99.90
33815;DHT22;20121;51.910;8.406;2023-07-28T09:45:18;20.70;99.90
33815;DHT22;20121;51.910;8.406;2023-07-28T09:47:45;20.90;99.90
33815;DHT22;20121;51.910;8.406;2023-07-28T09:50:15;20.90;99.90
33815;DHT22;20121;51.910;8.406;2023-07-28T09:52:48;20.70;99.90
33815;DHT22;20121;51.910;8.406;2023-07-28T09:55:15;20.90;99.90
33815;DHT22;20121;51.910;8.406;2023-07-28T09:57:56;20.80;99.90
33815;DHT22;20121;51.910;8.406;2023-07-28T10:00:23;20.60;99.90
33815;DHT22;20121;51.910;8.406;2023-07-28T10:02:49;20.70;99.90
33815;DHT22;20121;51.910;8.406;2023-07-28T10:05:16;20.30;99.90
33815;DHT22;20121;51.910;8.406;2023-07-28T10:07:43;20.50;99.90
33815;DHT22;20121;51.910;8.406;2023-07-28T10:10:13;20.60;99.90
33815;DHT22;20121;51.910;8.406;2023-07-28T10:12:47;20.40;99.90
33815;DHT22;20121;51.910;8.406;2023-07-28T10:15:15;20.50;99.90
33815;DHT22;20121;51.910;8.406;2023-07-28T10:17:50;20.50;99.90
33815;DHT22;20121;51.910;8.406;2023-07-28T10:20:30;20.50;99.90
33815;DHT22;20121;51.910;8.406;2023-07-28T10:23:13;20.50;99.90
33815;DHT22;20121;51.910;8.406;2023-07-28T10:25:40;20.50;99.90
33815;DHT22;20121;51.910;8.406;2023-07-28T10:28:07;20.50;99.90
33815;DHT22;20121;51.910;8.406;2023-07-28T10:30:54;20.50;99.90
33815;DHT22;20121;51.910;8.406;2023-07-28T10:33:34;20.50;99.90
33815;DHT22;20121;51.910;8.406;2023-07-28T10:39:15;20.60;99.90
33815;DHT22;20121;51.910;8.406;2023-07-28T10:42:06;20.70;99.90
33815;DHT22;20121;51.910;8.406;2023-07-28T10:44:32;21.00;99.90
33815;DHT22;20121;51.910;8.406;2023-07-28T10:46:58;21.00;99.90
33815;DHT22;20121;51.910;8.406;2023-07-28T10:49:25;20.10;99.90
33815;DHT22;20121;51.910;8.406;2023-07-28T10:51:51;21.10;99.90
33815;DHT22;20121;51.910;8.406;2023-07-28T10:54:16;21.10;99.90
33815;DHT22;20121;51.910;8.406;2023-07-28T10:56:46;21.10;99.90
33815;DHT22;20121;51.910;8.406;2023-07-28T10:59:12;21.30;99.90
33815;DHT22;20121;51.910;8.406;2023-07-28T11:01:39;21.40;99.90
33815;DHT22;20121;51.910;8.406;2023-07-28T11:04:14;21.30;99.90
33815;DHT22;20121;51.910;8.406;2023-07-28T11:06:47;21.40;99.90
33815;DHT22;20121;51.910;8.406;2023-07-28T11:09:17;21.60;99.90
33815;DHT22;20121;51.910;8.406;2023-07-28T11:11:44;21.70;99.90
33815;DHT22;20121;51.910;8.406;2023-07-28T11:14:11;21.80;99.90
33815;DHT22;20121;51.910;8.406;2023-07-28T11:16:39;21.70;99.90
33815;DHT22;20121;51.910;8.406;2023-07-28T11:19:10;21.80;99.90
33815;DHT22;20121;51.910;8.406;2023-07-28T11:21:40;22.00;99.90
33815;DHT22;20121;51.910;8.406;2023-07-28T11:24:10;22.00;99.90
33815;DHT22;20121;51.910;8.406;2023-07-28T11:26:39;22.40;99.90
33815;DHT22;20121;51.910;8.406;2023-07-28T11:29:05;22.20;99.90
33815;DHT22;20121;51.910;8.406;2023-07-28T11:31:31;22.20;99.90
33815;DHT22;20121;51.910;8.406;2023-07-28T11:33:58;22.50;99.90
33815;DHT22;20121;51.910;8.406;2023-07-28T11:36:28;22.50;99.90
33815;DHT22;20121;51.910;8.406;2023-07-28T11:38:59;22.50;99.90
33815;DHT22;20121;51.910;8.406;2023-07-28T11:41:25;22.50;99.90
33815;DHT22;20121;51.910;8.406;2023-07-28T11:43:52;23.00;99.90
33815;DHT22;20121;51.910;8.406;2023-07-28T11:49:17;22.80;99.90
33815;DHT22;20121;51.910;8.406;2023-07-28T11:51:51;22.80;99.90
33815;DHT22;20121;51.910;8.406;2023-07-28T11:54:18;22.90;99.90
33815;DHT22;20121;51.910;8.406;2023-07-28T11:56:49;22.90;99.90
33815;DHT22;20121;51.910;8.406;2023-07-28T11:59:17;22.90;99.90
33815;DHT22;20121;51.910;8.406;2023-07-28T12:02:00;22.90;99.90
33815;DHT22;20121;51.910;8.406;2023-07-28T12:04:28;22.90;99.90
33815;DHT22;20121;51.910;8.406;2023-07-28T12:12:18;22.20;99.90
33815;DHT22;20121;51.910;8.406;2023-07-28T12:14:44;22.50;99.90
33815;DHT22;20121;51.910;8.406;2023-07-28T12:17:14;22.60;99.90
33815;DHT22;20121;51.910;8.406;2023-07-28T12:22:21;22.80;99.90
33815;DHT22;20121;51.910;8.406;2023-07-28T12:24:47;22.90;99.90
33815;DHT22;20121;51.910;8.406;2023-07-28T12:27:12;23.20;99.90
33815;DHT22;20121;51.910;8.406;2023-07-28T12:29:39;23.30;99.90
33815;DHT22;20121;51.910;8.406;2023-07-28T12:32:05;23.60;99.90
33815;DHT22;20121;51.910;8.406;2023-07-28T12:34:30;23.50;99.90
33815;DHT22;20121;51.910;8.406;2023-07-28T12:36:56;23.70;99.90
33815;DHT22;20121;51.910;8.406;2023-07-28T12:39:22;23.70;99.90
33815;DHT22;20121;51.910;8.406;2023-07-28T12:41:50;23.70;99.90
33815;DHT22;20121;51.910;8.406;2023-07-28T12:44:25;23.80;99.90
33815;DHT22;20121;51.910;8.406;2023-07-28T12:46:50;23.50;99.90
33815;DHT22;20121;51.910;8.406;2023-07-28T12:49:16;23.50;99.90
33815;DHT22;20121;51.910;8.406;2023-07-28T12:51:44;23.50;99.90
33815;DHT22;20121;51.910;8.406;2023-07-28T12:54:10;23.50;99.90
33815;DHT22;20121;51.910;8.406;2023-07-28T12:56:35;23.60;99.90
33815;DHT22;20121;51.910;8.406;2023-07-28T12:59:01;23.40;99.90
33815;DHT22;20121;51.910;8.406;2023-07-28T13:01:26;23.40;99.90
33815;DHT22;20121;51.910;8.406;2023-07-28T13:03:52;23.50;99.90
33815;DHT22;20121;51.910;8.406;2023-07-28T13:06:19;23.80;99.90
33815;DHT22;20121;51.910;8.406;2023-07-28T13:08:45;23.50;99.90
33815;DHT22;20121;51.910;8.406;2023-07-28T13:11:10;23.60;99.90
33815;DHT22;20121;51.910;8.406;2023-07-28T13:13:36;23.60;99.90
33815;DHT22;20121;51.910;8.406;2023-07-28T13:16:02;23.60;99.90
33815;DHT22;20121;51.910;8.406;2023-07-28T13:18:27;23.60;99.90
33815;DHT22;20121;51.910;8.406;2023-07-28T13:20:55;23.70;99.90
33815;DHT22;20121;51.910;8.406;2023-07-28T13:23:20;24.70;99.90
33815;DHT22;20121;51.910;8.406;2023-07-28T13:25:46;24.00;99.90
33815;DHT22;20121;51.910;8.406;2023-07-28T13:28:11;24.00;99.90
33815;DHT22;20121;51.910;8.406;2023-07-28T13:30:37;24.20;99.90
33815;DHT22;20121;51.910;8.406;2023-07-28T13:33:03;24.30;99.90
33815;DHT22;20121;51.910;8.406;2023-07-28T13:35:30;24.30;99.90
33815;DHT22;20121;51.910;8.406;2023-07-28T13:37:56;24.30;99.90
33815;DHT22;20121;51.910;8.406;2023-07-28T13:40:21;24.30;99.90
33815;DHT22;20121;51.910;8.406;2023-07-28T13:42:47;24.40;99.90
33815;DHT22;20121;51.910;8.406;2023-07-28T13:45:13;24.40;99.90
33815;DHT22;20121;51.910;8.406;2023-07-28T13:47:38;24.30;99.90
33815;DHT22;20121;51.910;8.406;2023-07-28T13:50:04;24.30;99.90
33815;DHT22;20121;51.910;8.406;2023-07-28T13:52:30;24.40;99.90
33815;DHT22;20121;51.910;8.406;2023-07-28T13:54:56;24.40;99.90
33815;DHT22;20121;51.910;8.406;2023-07-28T13:57:21;24.40;99.90
33815;DHT22;20121;51.910;8.406;2023-07-28T13:59:47;24.70;99.90
33815;DHT22;20121;51.910;8.406;2023-07-28T14:02:12;24.50;99.90
33815;DHT22;20121;51.910;8.406;2023-07-28T14:04:38;24.50;99.90
33815;DHT22;20121;51.910;8.406;2023-07-28T14:07:04;24.60;99.90
33815;DHT22;20121;51.910;8.406;2023-07-28T14:09:30;24.50;99.90
33815;DHT22;20121;51.910;8.406;2023-07-28T14:11:55;24.50;99.90
33815;DHT22;20121;51.910;8.406;2023-07-28T14:14:21;24.40;99.90
33815;DHT22;20121;51.910;8.406;2023-07-28T14:19:12;24.40;99.90
33815;DHT22;20121;51.910;8.406;2023-07-28T14:21:38;24.30;99.90
33815;DHT22;20121;51.910;8.406;2023-07-28T14:24:05;24.30;99.90
33815;DHT22;20121;51.910;8.406;2023-07-28T14:26:31;24.20;99.90
33815;DHT22;20121;51.910;8.406;2023-07-28T14:28:56;24.10;99.90
33815;DHT22;20121;51.910;8.406;2023-07-28T14:31:22;24.10;99.90
33815;DHT22;20121;51.910;8.406;2023-07-28T14:33:48;24.50;99.90
33815;DHT22;20121;51.910;8.406;2023-07-28T14:36:13;24.00;99.90
33815;DHT22;20121;51.910;8.406;2023-07-28T14:38:39;24.10;99.90
33815;DHT22;20121;51.910;8.406;2023-07-28T14:41:05;24.10;99.90
33815;DHT22;20121;51.910;8.406;2023-07-28T14:43:30;24.20;99.90
33815;DHT22;20121;51.910;8.406;2023-07-28T14:45:56;24.30;99.90
33815;DHT22;20121;51.910;8.406;2023-07-28T14:48:22;24.30;99.90
33815;DHT22;20121;51.910;8.406;2023-07-28T14:50:47;24.40;99.90
33815;DHT22;20121;51.910;8.406;2023-07-28T14:53:36;24.50;99.90
33815;DHT22;20121;51.910;8.406;2023-07-28T14:56:04;24.50;99.90
33815;DHT22;20121;51.910;8.406;2023-07-28T14:58:30;24.50;99.90
33815;DHT22;20121;51.910;8.406;2023-07-28T15:00:56;24.60;99.90
33815;DHT22;20121;51.910;8.406;2023-07-28T15:03:25;24.60;99.90
33815;DHT22;20121;51.910;8.406;2023-07-28T15:05:51;24.50;99.90
33815;DHT22;20121;51.910;8.406;2023-07-28T15:08:17;24.40;99.90
33815;DHT22;20121;51.910;8.406;2023-07-28T15:10:42;24.40;99.90
33815;DHT22;20121;51.910;8.406;2023-07-28T15:13:08;24.30;99.90
33815;DHT22;20121;51.910;8.406;2023-07-28T15:15:34;23.10;99.90
33815;DHT22;20121;51.910;8.406;2023-07-28T15:17:59;24.80;99.90
33815;DHT22;20121;51.910;8.406;2023-07-28T15:20:25;24.50;99.90
33815;DHT22;20121;51.910;8.406;2023-07-28T15:22:51;24.60;99.90
33815;DHT22;20121;51.910;8.406;2023-07-28T15:25:16;24.70;99.90
33815;DHT22;20121;51.910;8.406;2023-07-28T15:27:42;24.70;99.90
33815;DHT22;20121;51.910;8.406;2023-07-28T15:30:09;24.80;99.90
33815;DHT22;20121;51.910;8.406;2023-07-28T15:32:36;24.90;99.90
33815;DHT22;20121;51.910;8.406;2023-07-28T15:35:02;24.80;99.90
33815;DHT22;20121;51.910;8.406;2023-07-28T15:37:29;24.80;99.90
33815;DHT22;20121;51.910;8.406;2023-07-28T15:39:55;24.80;99.90
33815;DHT22;20121;51.910;8.406;2023-07-28T15:42:21;24.60;99.90
33815;DHT22;20121;51.910;8.406;2023-07-28T15:44:47;24.70;99.90
33815;DHT22;20121;51.910;8.406;2023-07-28T15:47:12;24.90;99.90
33815;DHT22;20121;51.910;8.406;2023-07-28T15:49:38;24.70;99.90
33815;DHT22;20121;51.910;8.406;2023-07-28T15:52:04;24.70;99.90
33815;DHT22;20121;51.910;8.406;2023-07-28T15:54:29;24.70;99.90
33815;DHT22;20121;51.910;8.406;2023-07-28T15:56:55;24.70;99.90
33815;DHT22;20121;51.910;8.406;2023-07-28T15:59:21;24.40;99.90